Logo AVAMET
Benvolgut visitant, si us plau, ingressa Recuperar contrasenya
AVAMET paisatges

Inforatge Sueca el Perelló

Dades diàries. Acumulats / Últims 30 dies disponibles

Data Temperatura (°C) Humitat rel. (%) Pressió rel. (hPa) Vent (km/h) Precipitació
Mínima Mitjana Màxima Amplitud
tèrmica
Mínima Mitjana Màxima Mínima Mitjana Màxima Predom. Mitjana Ràfega
màxima
Total
(mm)
Índex-n
Mínima Mitjana Màxima Mínima Mitjana Màxima n
0 a 1
P0 max
mm 5'
Dades mensuals acumulades fins l'últim dia disponible
08/2020 21,3 23,2 25,7 26,6 27,8 29,2 31,0 9,7 48 78 92 1.011 1.014 1.019   10,4 46,7 0,4
Dades anuals acumulades fins l'últim dia disponible
2020 4,5 14,6 26,2 18,0 11,0 21,5 32,3 27,8 30 80 94 1.000 1.019 1.035   11,3 111,0 315,6
Últims 30 dies disponibles
13-08-2020 22,3     26,7     31,0 8,7 48 66 72 1.011 1.013 1.014 SW 10,0 40,2 0,0
12-08-2020 21,5     26,4     30,6 9,1 55 72 76 1.011 1.013 1.014 W 9,3 46,7 0,0
11-08-2020 24,4     26,8     29,3 4,9 73 75 81 1.012 1.014 1.015 NE 8,4 35,4 0,0
10-08-2020 22,7     26,4     28,9 6,2 71 80 87 1.012 1.013 1.016 NE 8,4 33,8 0,0
09-08-2020 22,0     26,5     29,3 7,3 66 80 88 1.013 1.015 1.017 ENE 9,5 45,1 0,0
08-08-2020 21,6     25,8     29,6 8,0 68 79 88 1.016 1.018 1.019 W 9,3 43,5 0,0
07-08-2020 21,3     26,1     28,8 7,5 62 77 89 1.016 1.018 1.019 ENE 10,1 40,2 0,0
06-08-2020 24,5     26,9     28,7 4,2 59 76 87 1.014 1.016 1.017 E 13,5 40,2 0,0
05-08-2020 23,7     26,5     28,4 4,7 73 81 89 1.012 1.013 1.014 E 13,0 41,8 0,0
04-08-2020 25,3     26,8     28,3 3,0 59 78 89 1.012 1.014 1.015 ENE 14,2 40,2 0,0
03-08-2020 25,7     27,1     27,8 2,1 65 78 87 1.011 1.012 1.014 ENE 12,6 45,1 0,2
02-08-2020 23,5     26,9     29,2 5,7 73 85 92 1.012 1.014 1.016 ENE 8,9 33,8 0,2
01-08-2020 23,6     27,0     29,6 6,0 82 88 92 1.012 1.014 1.016 ENE 8,2 45,1 0,0
31-07-2020 22,6     26,8     29,6 7,0 70 83 91 1.013 1.015 1.017 SSE 7,5 29,0 0,0
30-07-2020 22,8     26,4     28,7 5,9 77 86 92 1.014 1.016 1.017 NE 5,6 27,4 0,0
29-07-2020 26,2     27,3     28,8 2,6 78 85 89 1.014 1.015 1.017 NNE 10,9 37,0 0,0
28-07-2020 22,6     26,7     29,5 6,9 73 84 91 1.014 1.015 1.016 NE 7,2 29,0 0,0
27-07-2020 22,8     26,5     28,8 6,0 72 82 92 1.014 1.016 1.018 ENE 8,2 37,0 0,0
26-07-2020 22,2     26,1     28,2 6,0 75 83 91 1.014 1.015 1.017 NE 8,0 25,7 0,0
25-07-2020 22,8     26,5     28,4 5,6 68 79 86 1.013 1.014 1.016 ENE 11,7 30,6 0,0
24-07-2020 20,9     25,3     28,4 7,5 68 80 88 1.012 1.014 1.015 NE 10,3 30,6 0,0
23-07-2020 19,6     25,6     30,5 10,9 44 71 90 1.013 1.015 1.018 WSW 9,5 33,8 0,0
22-07-2020 23,3     26,1     28,3 5,0 60 81 90 1.017 1.018 1.020 NNE 7,9 40,2 0,2
21-07-2020 22,6     25,5     27,3 4,7 75 83 91 1.017 1.019 1.020 NE 8,0 27,4 0,0
20-07-2020 23,4     25,6     27,7 4,3 75 84 91 1.015 1.016 1.019 ENE 8,4 30,6 0,0
19-07-2020 22,2     25,6     28,9 6,7 68 83 92 1.012 1.015 1.016 WSW 9,7 32,2 0,0
18-07-2020 23,0     25,6     27,3 4,3 71 81 90 1.013 1.015 1.017 E 11,9 40,2 0,0
17-07-2020 21,2     24,6     26,9 5,7 69 83 91 1.014 1.016 1.018 E 10,9 38,6 0,0
16-07-2020 21,4     25,2     27,0 5,6 69 78 90 1.017 1.018 1.020 E 10,5 37,0 0,0
15-07-2020 18,6     23,3     27,3 8,7 63 80 92 1.016 1.017 1.018 E 10,6 38,6 0,0
Últims 13 mesos disponibles
07/2020 18,6 22,3 26,2 25,5 26,4 28,0 30,5 11,9 71 82 86 1.011 1.016 1.020 NE 9,4 45,1 15,8
06/2020 15,8 19,2 23,3 22,6 20,3 25,9 30,3 14,5 51 79 87 1.005 1.014 1.021 NE 11,7 62,8 10,4
05/2020 11,8 16,1 20,8 20,1 19,8 23,7 32,3 20,5 54 77 88 1.005 1.017 1.027 NE 11,4 67,6 12,4
04/2020 8,3 12,3 16,5 15,5 15,2 18,7 25,9 17,6 56 83 93 1.006 1.016 1.026 NE 9,6 59,5 63,6
03/2020 5,2 10,3 16,5 13,7 11,6 17,2 22,6 17,4 52 77 93 1.007 1.018 1.027 NNE 14,8 104,6 78,2
02/2020 6,2 10,0 14,7 14,0 14,4 18,9 26,2 20,0 60 80 91 1.014 1.026 1.033 NNW 9,9 53,1 2,4
01/2020 4,5 8,1 13,9 11,1 11,0 15,1 19,6 15,1 68 82 93 1.016 1.026 1.033 WSW 12,9 111,0 132,4
12/2019 6,4 11,1 16,3 13,8 13,1 16,9 23,8 17,4 59 77 91 1.002 1.019 1.033 W 16,7 107,8 103,2
11/2019 6,8 12,0 20,8 15,1 14,8 18,9 27,2 20,4 55 66 84 999 1.011 1.019 W 18,5 78,9 6,6
10/2019 11,2 15,3 20,7 19,5 18,4 24,2 33,8 22,6 54 77 89 1.008 1.017 1.022 W 9,3 54,7 38,4
09/2019 14,6 19,4 24,8 23,2 23,1 26,6 32,7 18,1 57 80 89 1.010 1.017 1.024 SSE 11,5 90,7 55,4
08/2019 17,6 21,8 26,4 25,5 26,7 28,8 36,8 19,2 67 81 87 1.010 1.016 1.020 S 9,9 79,6 5,2
07/2019 19,8 21,9 25,1 25,7 26,7 28,6 33,5 13,7 63 80 88 1.005 1.014 1.021 SSE 10,1 53,7 3,8
Tots els anys disponibles
2019 2,4 13,9 26,4 17,8 11,8 21,6 36,8 34,4 45 75 94 995 1.017 1.034 SSE 12,2 107,8 274,6
2018 1,2 14,1 26,1 17,8 8,3 21,5 35,2 34,0 46 76 94 993 1.016 1.035 S 12,0 98,2 769,4
2017 2,2 14,8 25,8 18,7 11,1 22,3 35,3 33,1 48 77 93 998 1.019 1.036 S 6,5 88,9 175,2
Temperatura (°C)
Humitat relativa (%)
Velocitat del vent i ràfega màxima (km/h)
Direcció del vent (°)
Pressió (hPa)
Precipitació (mm)
Nota sobre les dades: s'avisa a l'usuari de la provisionalitat i no oficialitat d'aquestes dades
Logo AVAMET blanc
Web allotjada a Sollutia
Llicència de Creative CommonsLa web d'AVAMET i els seus continguts estan subjectes a una llicència de
Reconeixement - No Comercial - Compartir igual
Últimes estacions: Fanzara (Soci), Cirat (Estació pròpia d'AVAMET), Torremocha del Jiloca (Limítrofe/Soci), Orihuela - Arneva (MeteOrihuela), Enguera - Antolí (Soci), Vilamarxant - La Pedrera (Soci), Càlig (Ajuntament Soci) - - -